createdAt,value
2019-04-11T00:01:16.374Z,41.63
2019-04-11T00:03:43.964Z,45.97
2019-04-11T00:06:11.828Z,41.67
2019-04-11T00:08:39.275Z,42.40
2019-04-11T00:11:06.536Z,54.50
2019-04-11T00:13:36.195Z,42.47
2019-04-11T00:16:04.746Z,41.47
2019-04-11T00:18:32.458Z,43.60
2019-04-11T00:21:00.304Z,45.53
2019-04-11T00:23:27.726Z,43.20
2019-04-11T00:25:55.940Z,48.43
2019-04-11T00:28:23.699Z,49.30
2019-04-11T00:30:52.444Z,43.67
2019-04-11T00:33:20.208Z,48.70
2019-04-11T00:35:48.615Z,53.57
2019-04-11T00:38:16.077Z,52.53
2019-04-11T00:40:43.745Z,43.63
2019-04-11T00:43:11.459Z,46.63
2019-04-11T00:45:40.006Z,53.70
2019-04-11T00:48:07.558Z,48.50
2019-04-11T00:50:35.080Z,46.00
2019-04-11T00:53:03.590Z,47.40
2019-04-11T00:55:31.469Z,49.77
2019-04-11T00:57:59.220Z,51.57
2019-04-11T01:00:27.099Z,46.40
2019-04-11T01:02:55.831Z,46.57
2019-04-11T01:05:23.549Z,48.80
2019-04-11T01:07:51.291Z,50.10
2019-04-11T01:10:18.896Z,51.67
2019-04-11T01:12:46.951Z,58.93
2019-04-11T01:15:17.531Z,47.40
2019-04-11T01:17:45.433Z,46.67
2019-04-11T01:20:13.362Z,49.07
2019-04-11T01:22:40.832Z,50.30
2019-04-11T01:25:08.430Z,48.77
2019-04-11T01:27:36.741Z,48.40
2019-04-11T01:30:06.184Z,56.07
2019-04-11T01:32:34.654Z,48.03
2019-04-11T01:35:02.268Z,51.30
2019-04-11T01:37:29.766Z,49.70
2019-04-11T01:40:01.428Z,53.60
2019-04-11T01:42:29.681Z,48.73
2019-04-11T01:44:57.042Z,51.97
2019-04-11T01:47:44.760Z,48.73
2019-04-11T01:50:14.152Z,52.27
2019-04-11T01:52:42.431Z,48.67
2019-04-11T01:55:10.269Z,52.23
2019-04-11T01:57:38.209Z,53.47
2019-04-11T02:00:06.601Z,47.87
2019-04-11T02:02:54.841Z,58.13
2019-04-11T02:05:25.187Z,54.37
2019-04-11T02:07:53.230Z,45.97
2019-04-11T02:10:21.048Z,45.50
2019-04-11T02:12:48.399Z,54.10
2019-04-11T02:15:16.468Z,43.73
2019-04-11T02:17:43.889Z,50.07
2019-04-11T02:20:12.538Z,50.13
2019-04-11T02:22:43.854Z,49.90
2019-04-11T02:25:49.131Z,53.43
2019-04-11T02:28:20.295Z,49.73
2019-04-11T02:30:51.243Z,48.87
2019-04-11T02:33:21.611Z,43.73
2019-04-11T02:35:49.483Z,40.27
2019-04-11T02:38:18.731Z,52.87
2019-04-11T02:40:49.088Z,43.07
2019-04-11T02:43:17.426Z,45.97
2019-04-11T02:45:58.815Z,42.03
2019-04-11T02:48:16.337Z,47.73
2019-04-11T02:50:45.720Z,46.10
2019-04-11T02:53:14.764Z,46.30
2019-04-11T02:55:43.901Z,42.83
2019-04-11T02:58:12.526Z,42.93
2019-04-11T03:00:40.420Z,43.10
2019-04-11T03:03:10.101Z,42.10
2019-04-11T03:05:39.319Z,43.43
2019-04-11T03:08:11.174Z,42.93
2019-04-11T03:10:37.575Z,38.73
2019-04-11T03:13:05.352Z,40.63
2019-04-11T03:15:48.472Z,42.90
2019-04-11T03:18:07.299Z,41.30
2019-04-11T03:20:40.723Z,40.97
2019-04-11T03:23:07.509Z,42.03
2019-04-11T03:25:33.067Z,40.60
2019-04-11T03:28:01.605Z,35.87
2019-04-11T03:30:48.962Z,40.67
2019-04-11T03:36:28.123Z,41.07
2019-04-11T03:38:18.729Z,44.20
2019-04-11T03:40:48.171Z,40.20
2019-04-11T03:43:10.761Z,39.43
2019-04-11T03:45:47.980Z,50.10
2019-04-11T03:48:10.555Z,43.97
2019-04-11T03:50:29.517Z,38.40
2019-04-11T03:52:56.170Z,40.50
2019-04-11T03:55:25.666Z,42.27
2019-04-11T03:57:54.309Z,42.30
2019-04-11T04:00:23.726Z,36.07
2019-04-11T04:02:52.554Z,39.33
2019-04-11T04:05:21.700Z,41.07
2019-04-11T04:07:49.434Z,39.07
2019-04-11T04:10:20.021Z,35.77
2019-04-11T04:12:48.176Z,42.57
2019-04-11T04:16:04.018Z,39.70
2019-04-11T04:18:43.733Z,43.37
2019-04-11T04:21:30.992Z,36.00
2019-04-11T04:24:01.355Z,40.63
2019-04-11T04:26:29.211Z,37.87
2019-04-11T04:28:57.774Z,38.80
2019-04-11T04:31:28.536Z,35.30
2019-04-11T04:33:57.772Z,43.30
2019-04-11T04:36:27.278Z,35.07
2019-04-11T04:38:57.127Z,38.77
2019-04-11T04:41:37.514Z,44.97
2019-04-11T04:43:57.546Z,44.90
2019-04-11T04:46:39.695Z,42.97
2019-04-11T04:48:55.981Z,40.70
2019-04-11T04:51:24.294Z,40.63
2019-04-11T04:53:52.290Z,39.60
2019-04-11T04:56:24.134Z,43.37
2019-04-11T04:58:50.687Z,40.53
2019-04-11T05:01:19.279Z,40.93
2019-04-11T05:03:48.753Z,35.03
2019-04-11T05:06:18.489Z,47.17
2019-04-11T05:08:47.146Z,38.97
2019-04-11T05:11:15.865Z,39.67
2019-04-11T05:13:49.294Z,39.60
2019-04-11T05:16:17.783Z,44.87
2019-04-11T05:18:44.505Z,38.03
2019-04-11T05:21:12.865Z,39.33
2019-04-11T05:23:40.228Z,38.07
2019-04-11T05:26:08.697Z,45.70
2019-04-11T05:28:37.198Z,37.10
2019-04-11T05:31:05.969Z,35.87
2019-04-11T05:33:34.916Z,41.90
2019-04-11T05:36:02.428Z,37.03
2019-04-11T05:38:29.676Z,36.80
2019-04-11T05:40:56.989Z,50.17
2019-04-11T05:43:26.823Z,35.30
2019-04-11T05:45:55.163Z,43.10
2019-04-11T05:49:01.117Z,38.10
2019-04-11T05:51:36.954Z,34.20
2019-04-11T05:54:05.935Z,37.47
2019-04-11T05:56:30.799Z,34.67
2019-04-11T05:59:05.357Z,35.83
2019-04-11T06:01:42.283Z,36.17
2019-04-11T06:04:20.486Z,37.00
2019-04-11T06:06:52.834Z,37.37
2019-04-11T06:09:30.384Z,36.77
2019-04-11T06:12:14.975Z,31.47
2019-04-11T06:14:51.314Z,37.40
2019-04-11T06:17:20.377Z,32.13
2019-04-11T06:20:08.226Z,33.43
2019-04-11T06:22:40.183Z,38.20
2019-04-11T06:25:46.002Z,50.40
2019-04-11T06:28:16.458Z,41.03
2019-04-11T06:31:04.459Z,31.37
2019-04-11T06:33:36.875Z,36.93
2019-04-11T06:36:26.683Z,35.23
2019-04-11T06:39:05.052Z,37.30
2019-04-11T06:41:50.831Z,34.40
2019-04-11T06:44:48.024Z,35.80
2019-04-11T06:47:27.199Z,39.13
2019-04-11T06:50:11.036Z,36.90
2019-04-11T06:52:39.268Z,34.40
2019-04-11T06:55:26.882Z,38.87
2019-04-11T06:58:00.450Z,41.03
2019-04-11T07:00:29.305Z,35.43
2019-04-11T07:02:59.347Z,38.80
2019-04-11T07:05:29.027Z,35.03
2019-04-11T07:07:57.827Z,43.33
2019-04-11T07:10:31.183Z,34.50
2019-04-11T07:13:05.602Z,43.73
2019-04-11T07:15:41.620Z,31.20
2019-04-11T07:18:27.008Z,41.33
2019-04-11T07:21:00.537Z,36.23
2019-04-11T07:23:47.018Z,36.83
2019-04-11T07:26:46.391Z,37.40
2019-04-11T07:29:51.279Z,39.87
2019-04-11T07:32:22.149Z,33.00
2019-04-11T07:35:09.034Z,37.83
2019-04-11T07:37:38.747Z,38.00
2019-04-11T07:40:29.344Z,40.90
2019-04-11T07:43:31.772Z,40.50
2019-04-11T07:46:25.475Z,38.63
2019-04-11T07:49:05.917Z,42.63
2019-04-11T07:51:36.397Z,40.30
2019-04-11T07:54:06.516Z,39.40
2019-04-11T07:56:52.706Z,34.03
2019-04-11T07:59:35.165Z,38.87
2019-04-11T08:02:23.644Z,35.10
2019-04-11T08:05:19.222Z,36.03
2019-04-11T08:08:25.717Z,36.27
2019-04-11T08:11:21.373Z,40.27
2019-04-11T08:14:14.118Z,44.17
2019-04-11T08:17:29.000Z,38.87
2019-04-11T08:20:07.936Z,39.80
2019-04-11T08:22:55.115Z,38.40
2019-04-11T08:25:37.804Z,39.33
2019-04-11T08:28:09.283Z,38.47
2019-04-11T08:30:57.633Z,38.70
2019-04-11T08:33:26.714Z,43.70
2019-04-11T08:36:16.045Z,35.83
2019-04-11T08:38:44.607Z,38.27
2019-04-11T08:41:53.077Z,44.27
2019-04-11T08:44:25.863Z,39.53
2019-04-11T08:46:58.085Z,47.90
2019-04-11T08:49:55.535Z,37.40
2019-04-11T08:52:38.174Z,37.47
2019-04-11T08:55:15.935Z,48.90
2019-04-11T08:57:44.884Z,41.33
2019-04-11T09:00:33.212Z,42.03
2019-04-11T09:03:19.690Z,41.37
2019-04-11T09:06:08.455Z,48.30
2019-04-11T09:08:58.583Z,35.00
2019-04-11T09:11:49.106Z,44.10
2019-04-11T09:14:35.897Z,47.80
2019-04-11T09:17:14.450Z,39.43
2019-04-11T09:20:00.093Z,41.33
2019-04-11T09:22:37.352Z,47.30
2019-04-11T09:25:30.237Z,36.90
2019-04-11T09:28:15.329Z,51.17
2019-04-11T09:31:05.139Z,38.50
2019-04-11T09:33:57.774Z,40.43
2019-04-11T09:36:40.830Z,48.73
2019-04-11T09:39:26.984Z,47.33
2019-04-11T09:42:17.765Z,46.83
2019-04-11T09:45:11.052Z,43.27
2019-04-11T09:48:09.344Z,42.23
2019-04-11T09:50:57.207Z,42.07
2019-04-11T09:53:24.750Z,40.73
2019-04-11T09:56:10.976Z,37.63
2019-04-11T09:58:38.630Z,49.40
2019-04-11T10:01:35.116Z,41.00
2019-04-11T10:04:03.632Z,59.27
2019-04-11T10:06:44.747Z,44.37
2019-04-11T10:09:11.987Z,38.87
2019-04-11T10:11:48.518Z,43.50
2019-04-11T10:14:17.659Z,45.23
2019-04-11T10:17:04.434Z,34.20
2019-04-11T10:19:40.407Z,39.73
2019-04-11T10:22:27.660Z,46.23
2019-04-11T10:25:01.053Z,43.53
2019-04-11T10:27:48.963Z,40.40
2019-04-11T10:30:34.837Z,44.70
2019-04-11T10:33:06.680Z,42.17
2019-04-11T10:35:59.187Z,37.20
2019-04-11T10:38:28.656Z,59.07
2019-04-11T10:41:04.521Z,48.50
2019-04-11T10:43:32.148Z,65.97
2019-04-11T10:46:28.149Z,45.13
2019-04-11T10:49:03.422Z,39.77
2019-04-11T10:51:42.305Z,35.70
2019-04-11T10:54:11.396Z,37.00
2019-04-11T10:56:59.898Z,35.10
2019-04-11T10:59:30.374Z,45.27
2019-04-11T11:02:18.317Z,39.97
2019-04-11T11:04:49.008Z,36.37
2019-04-11T11:07:20.305Z,33.63
2019-04-11T11:10:09.239Z,38.50
2019-04-11T11:12:57.322Z,36.40
2019-04-11T11:15:27.500Z,40.33
2019-04-11T11:18:38.216Z,39.20
2019-04-11T11:20:53.945Z,35.97
2019-04-11T11:23:33.462Z,43.77
2019-04-11T11:26:22.695Z,35.07
2019-04-11T11:29:11.610Z,35.97
2019-04-11T11:31:40.797Z,36.63
2019-04-11T11:34:19.440Z,37.67
2019-04-11T11:37:04.922Z,46.07
2019-04-11T11:39:39.496Z,35.10
2019-04-11T11:42:24.886Z,35.60
2019-04-11T11:45:05.834Z,35.00
2019-04-11T11:48:08.867Z,42.67
2019-04-11T11:50:34.924Z,40.47
2019-04-11T11:53:28.322Z,41.90
2019-04-11T11:55:55.751Z,37.90
2019-04-11T11:58:43.532Z,39.63
2019-04-11T12:01:11.692Z,38.43
2019-04-11T12:04:00.179Z,39.13
2019-04-11T12:06:27.124Z,36.07
2019-04-11T12:09:20.370Z,37.60
2019-04-11T12:11:52.949Z,33.90
2019-04-11T12:14:44.938Z,33.00
2019-04-11T12:17:47.085Z,33.80
2019-04-11T12:20:22.863Z,35.17
2019-04-11T12:22:52.085Z,42.83
2019-04-11T12:25:25.180Z,33.27
2019-04-11T12:28:15.336Z,36.20
2019-04-11T12:30:48.549Z,40.97
2019-04-11T12:33:35.343Z,38.07
2019-04-11T12:36:12.449Z,37.33
2019-04-11T12:38:54.684Z,36.60
2019-04-11T12:41:28.461Z,35.17
2019-04-11T12:44:29.489Z,38.73
2019-04-11T12:47:14.712Z,41.33
2019-04-11T12:50:03.439Z,33.63
2019-04-11T12:52:56.471Z,40.17
2019-04-11T12:55:29.714Z,33.83
2019-04-11T12:58:15.350Z,41.37
2019-04-11T13:00:51.725Z,40.13
2019-04-11T13:03:50.393Z,34.40
2019-04-11T13:06:35.382Z,34.63
2019-04-11T13:09:21.868Z,41.93
2019-04-11T13:11:50.493Z,40.83
2019-04-11T13:14:29.781Z,33.43
2019-04-11T13:16:58.368Z,31.43
2019-04-11T13:19:47.984Z,35.13
2019-04-11T13:22:19.385Z,35.40
2019-04-11T13:25:05.220Z,32.60
2019-04-11T13:27:37.070Z,38.63
2019-04-11T13:30:34.984Z,33.60
2019-04-11T13:33:06.286Z,42.50
2019-04-11T13:35:57.352Z,41.23
2019-04-11T13:38:33.468Z,40.53
2019-04-11T13:41:20.678Z,45.03
2019-04-11T13:44:04.100Z,34.37
2019-04-11T13:46:48.791Z,40.20
2019-04-11T13:49:29.433Z,37.67
2019-04-11T13:52:28.191Z,38.37
2019-04-11T13:55:16.176Z,48.20
2019-04-11T13:58:05.617Z,42.13
2019-04-11T14:00:52.601Z,38.87
2019-04-11T14:03:48.666Z,34.73
2019-04-11T14:06:38.067Z,36.03
2019-04-11T14:09:30.479Z,34.50
2019-04-11T14:12:04.774Z,35.53
2019-04-11T14:14:38.248Z,35.97
2019-04-11T14:17:12.016Z,35.10
2019-04-11T14:19:58.225Z,38.17
2019-04-11T14:22:29.934Z,34.70
2019-04-11T14:25:15.886Z,33.90
2019-04-11T14:27:43.620Z,44.73
2019-04-11T14:30:37.749Z,37.67
2019-04-11T14:33:04.963Z,35.43
2019-04-11T14:35:50.535Z,35.37
2019-04-11T14:38:19.120Z,34.20
2019-04-11T14:41:05.950Z,35.80
2019-04-11T14:43:40.708Z,33.20
2019-04-11T14:46:27.713Z,35.40
2019-04-11T14:49:00.748Z,36.43
2019-04-11T14:51:53.648Z,34.43
2019-04-11T14:54:49.227Z,48.13
2019-04-11T14:57:39.198Z,39.50
2019-04-11T15:00:18.202Z,42.93
2019-04-11T15:03:04.472Z,32.63
2019-04-11T15:05:53.858Z,35.27
2019-04-11T15:08:39.009Z,39.23
2019-04-11T15:11:25.979Z,38.43
2019-04-11T15:13:56.489Z,35.87
2019-04-11T15:16:49.625Z,29.63
2019-04-11T15:19:16.890Z,32.43
2019-04-11T15:22:03.966Z,35.47
2019-04-11T15:24:31.877Z,37.80
2019-04-11T15:27:17.430Z,39.07
2019-04-11T15:29:45.884Z,34.40
2019-04-11T15:32:27.420Z,36.80
2019-04-11T15:34:57.730Z,32.70
2019-04-11T15:37:47.353Z,31.17
2019-04-11T15:40:26.776Z,37.20
2019-04-11T15:43:13.014Z,33.33
2019-04-11T15:46:09.976Z,34.73
2019-04-11T15:49:02.865Z,34.30
2019-04-11T15:51:37.471Z,31.00
2019-04-11T15:54:24.783Z,38.33
2019-04-11T15:56:56.131Z,33.10
2019-04-11T15:59:45.377Z,34.13
2019-04-11T16:02:22.717Z,35.17
2019-04-11T16:05:09.829Z,39.53
2019-04-11T16:08:02.703Z,44.23
2019-04-11T16:10:31.862Z,32.60
2019-04-11T16:13:06.389Z,34.83
2019-04-11T16:15:34.248Z,32.50
2019-04-11T16:18:21.119Z,30.10
2019-04-11T16:20:51.645Z,31.70
2019-04-11T16:23:39.474Z,31.40
2019-04-11T16:26:09.960Z,37.53
2019-04-11T16:28:55.910Z,31.90
2019-04-11T16:31:27.266Z,27.77
2019-04-11T16:34:08.458Z,34.60
2019-04-11T16:36:56.422Z,31.87
2019-04-11T16:39:55.063Z,28.43
2019-04-11T16:42:38.946Z,26.30
2019-04-11T16:45:39.101Z,27.50
2019-04-11T16:48:06.544Z,28.50
2019-04-11T16:50:33.958Z,36.47
2019-04-11T16:53:01.609Z,30.37
2019-04-11T16:55:28.940Z,26.33
2019-04-11T16:57:56.308Z,29.17
2019-04-11T17:00:23.797Z,27.53
2019-04-11T17:02:54.662Z,26.30
2019-04-11T17:05:20.484Z,32.00
2019-04-11T17:08:06.276Z,27.87
2019-04-11T17:10:52.013Z,27.83
2019-04-11T17:13:19.531Z,30.13
2019-04-11T17:15:46.922Z,24.87
2019-04-11T17:18:14.228Z,27.57
2019-04-11T17:20:41.590Z,33.93
2019-04-11T17:23:09.114Z,34.67
2019-04-11T17:25:36.367Z,30.30
2019-04-11T17:28:03.577Z,30.77
2019-04-11T17:30:30.892Z,35.57
2019-04-11T17:32:58.128Z,37.80
2019-04-11T17:35:25.440Z,30.90
2019-04-11T17:37:52.723Z,30.93
2019-04-11T17:40:19.949Z,27.57
2019-04-11T17:42:47.277Z,31.93
2019-04-11T17:45:14.527Z,28.33
2019-04-11T17:47:44.757Z,31.97
2019-04-11T17:50:12.713Z,28.60
2019-04-11T17:52:40.188Z,30.13
2019-04-11T17:55:07.445Z,30.73
2019-04-11T17:57:35.054Z,29.87
2019-04-11T18:00:02.685Z,30.17
2019-04-11T18:02:30.198Z,36.53
2019-04-11T18:04:59.014Z,37.93
2019-04-11T18:07:26.665Z,29.40
2019-04-11T18:09:56.160Z,34.20
2019-04-11T18:12:23.790Z,28.80
2019-04-11T18:14:52.590Z,26.00
2019-04-11T18:17:20.106Z,32.23
2019-04-11T18:19:48.221Z,29.53
2019-04-11T18:22:15.684Z,26.93
2019-04-11T18:24:42.968Z,29.80
2019-04-11T18:27:10.327Z,29.60
2019-04-11T18:29:37.881Z,28.50
2019-04-11T18:32:05.316Z,32.63
2019-04-11T18:34:32.957Z,29.33
2019-04-11T18:37:02.197Z,32.57
2019-04-11T18:39:29.792Z,27.60
2019-04-11T18:41:57.734Z,32.13
2019-04-11T18:44:25.254Z,31.33
2019-04-11T18:46:52.561Z,29.10
2019-04-11T18:49:21.845Z,29.20
2019-04-11T18:51:50.826Z,30.50
2019-04-11T18:54:18.481Z,31.67
2019-04-11T18:56:45.791Z,34.93
2019-04-11T18:59:33.951Z,33.37
2019-04-11T19:02:02.070Z,27.90
2019-04-11T19:04:32.640Z,27.90
2019-04-11T19:06:59.435Z,33.77
2019-04-11T19:09:26.914Z,38.70
2019-04-11T19:11:54.582Z,29.93
2019-04-11T19:14:24.583Z,28.67
2019-04-11T19:16:51.118Z,27.77
2019-04-11T19:19:19.307Z,29.13
2019-04-11T19:21:50.785Z,29.37
2019-04-11T19:24:16.267Z,29.80
2019-04-11T19:26:46.085Z,26.30
2019-04-11T19:29:13.161Z,27.40
2019-04-11T19:31:41.202Z,31.67
2019-04-11T19:34:08.936Z,30.80
2019-04-11T19:36:36.581Z,31.37
2019-04-11T19:39:05.818Z,31.97
2019-04-11T19:41:33.229Z,32.90
2019-04-11T19:44:02.327Z,28.80
2019-04-11T19:46:29.680Z,33.43
2019-04-11T19:48:59.418Z,34.97
2019-04-11T19:51:28.975Z,31.67
2019-04-11T19:53:56.517Z,35.40
2019-04-11T19:56:41.067Z,34.50
2019-04-11T19:59:08.436Z,36.17
2019-04-11T20:01:35.789Z,33.87
2019-04-11T20:04:03.093Z,38.57
2019-04-11T20:06:32.311Z,39.70
2019-04-11T20:08:59.670Z,31.67
2019-04-11T20:11:29.380Z,31.60
2019-04-11T20:13:56.104Z,28.60
2019-04-11T20:16:23.569Z,37.83
2019-04-11T20:18:54.297Z,34.17
2019-04-11T20:21:20.809Z,31.53
2019-04-11T20:23:48.530Z,36.93
2019-04-11T20:26:19.938Z,33.40
2019-04-11T20:28:44.953Z,29.70
2019-04-11T20:31:12.217Z,32.73
2019-04-11T20:33:39.448Z,33.47
2019-04-11T20:36:08.140Z,36.70
2019-04-11T20:38:36.306Z,40.00
2019-04-11T20:41:03.970Z,33.10
2019-04-11T20:43:32.480Z,34.37
2019-04-11T20:46:00.118Z,37.70
2019-04-11T20:48:27.821Z,41.03
2019-04-11T20:50:56.641Z,38.60
2019-04-11T20:53:24.269Z,38.00
2019-04-11T20:55:52.622Z,37.97
2019-04-11T20:58:27.047Z,42.90
2019-04-11T21:00:55.184Z,37.33
2019-04-11T21:03:18.901Z,36.10
2019-04-11T21:05:46.178Z,37.47
2019-04-11T21:08:13.402Z,44.80
2019-04-11T21:10:40.770Z,37.23
2019-04-11T21:13:08.136Z,39.90
2019-04-11T21:15:35.428Z,45.73
2019-04-11T21:18:02.789Z,42.30
2019-04-11T21:20:29.994Z,32.87
2019-04-11T21:22:57.549Z,44.47
2019-04-11T21:25:26.093Z,37.67
2019-04-11T21:27:53.943Z,39.03
2019-04-11T21:30:21.195Z,43.23
2019-04-11T21:32:48.565Z,45.30
2019-04-11T21:35:15.815Z,42.33
2019-04-11T21:37:43.091Z,43.27
2019-04-11T21:40:23.129Z,38.60
2019-04-11T21:42:50.474Z,40.27
2019-04-11T21:45:17.852Z,44.20
2019-04-11T21:47:45.169Z,40.70
2019-04-11T21:50:12.710Z,39.47
2019-04-11T21:52:43.410Z,46.60
2019-04-11T21:55:10.191Z,34.67
2019-04-11T21:57:37.477Z,47.13
2019-04-11T22:00:10.379Z,36.70
2019-04-11T22:02:56.262Z,36.60
2019-04-11T22:05:41.994Z,37.93
2019-04-11T22:08:27.989Z,46.93
2019-04-11T22:11:13.913Z,40.53
2019-04-11T22:13:59.806Z,43.60
2019-04-11T22:16:27.856Z,41.57
2019-04-11T22:18:55.096Z,37.60
2019-04-11T22:21:22.324Z,47.03
2019-04-11T22:23:49.676Z,41.87
2019-04-11T22:26:16.961Z,36.10
2019-04-11T22:28:44.441Z,40.53
2019-04-11T22:31:11.775Z,39.20
2019-04-11T22:33:43.447Z,38.07
2019-04-11T22:36:10.683Z,38.00
2019-04-11T22:38:37.994Z,41.80
2019-04-11T22:41:05.289Z,36.00
2019-04-11T22:43:32.516Z,35.73
2019-04-11T22:45:59.953Z,39.47
2019-04-11T22:48:27.384Z,38.03
2019-04-11T22:50:54.794Z,38.90
2019-04-11T22:53:22.289Z,39.80
2019-04-11T22:55:49.500Z,37.30
2019-04-11T22:58:16.825Z,38.00
2019-04-11T23:00:45.832Z,38.10
2019-04-11T23:03:29.557Z,37.10
2019-04-11T23:05:56.793Z,34.20
2019-04-11T23:08:24.218Z,36.50
2019-04-11T23:10:51.499Z,42.80
2019-04-11T23:13:18.713Z,37.83
2019-04-11T23:15:46.030Z,34.63
2019-04-11T23:18:14.006Z,37.13
2019-04-11T23:20:44.234Z,34.27
2019-04-11T23:23:13.454Z,39.57
2019-04-11T23:25:40.534Z,36.93
2019-04-11T23:28:07.801Z,35.90
2019-04-11T23:30:35.281Z,35.30
2019-04-11T23:33:02.509Z,33.40
2019-04-11T23:35:29.776Z,34.57
2019-04-11T23:37:57.060Z,53.03
2019-04-11T23:40:24.288Z,37.63
2019-04-11T23:42:51.696Z,37.87
2019-04-11T23:45:22.637Z,41.10
2019-04-11T23:47:53.163Z,38.20
2019-04-11T23:50:19.308Z,40.60
2019-04-11T23:52:46.526Z,37.00
2019-04-11T23:55:14.648Z,40.70
2019-04-11T23:57:41.972Z,38.23
